Magnolia — WDB7135 — position and weather

sailwx.info

Track history (hours):
 
Tides and Currents Weather Stations Pressure Air Temp Water Temp Dewpoint Dewpoint Depression Visibility Wind Speed Wind Dir Waves Ship Positions

Magnolia

Owner: Magnolia Marine Transport Co, Vicksburg, MS. More information available from US FCC via Universal Licensing System and Coast Guard Vessel Documentation Center.

Last reported at 2017-May-18 03:16 UTC. Time now 2017-Jun-27 05:30 UTC.
Position N 32°37' W 091°09'.
Warning: this ship's position is 40 days out of date.

Length 215 m.

MMSI: 366936960.

Date/timePositionNaut miles runAvg speedWind from/ knotsBaromVisibWave heightAir tempDewpointWater temp
2017-May-18 03:16N 32°37' W 091°09'2 5.3
2017-May-18 02:49N 32°35' W 091°07'1 4.6
2017-May-18 02:30N 32°34' W 091°06'4 4.4
2017-May-18 01:38N 32°30' W 091°07'1 5.9
2017-May-18 01:29N 32°29' W 091°07'2 3.2
2017-May-18 01:00N 32°28' W 091°06'2 4.2
2017-May-18 00:30N 32°27' W 091°04'3 5.1
2017-May-18 00:00N 32°26' W 091°01'2 4.5
2017-May-17 23:30N 32°24' W 090°60'2 3.9
2017-May-17 23:00N 32°22' W 090°60'3 5.8
2017-May-17 22:30N 32°21' W 090°56'3 5.0
2017-May-17 22:00N 32°20' W 090°54'2 4.1
2017-May-17 21:30N 32°18' W 090°55'0 0.9
2017-May-17 21:00N 32°18' W 090°55'0 0.1
2017-May-17 20:30N 32°18' W 090°55'0 0.0
2017-May-17 20:00N 32°18' W 090°55'0 0.0
2017-May-17 19:30N 32°18' W 090°55'0 0.0
2017-May-17 19:00N 32°18' W 090°55'0 0.0
2017-May-17 18:30N 32°18' W 090°55'0 0.0
2017-May-17 18:00N 32°18' W 090°55'0 0.0
2017-May-17 17:30N 32°18' W 090°55'0 0.0
2017-May-17 17:00N 32°18' W 090°55'0 0.0
2017-May-17 16:30N 32°18' W 090°55'0 0.0
2017-May-17 16:00N 32°18' W 090°55'0 0.1
2017-May-17 15:30N 32°18' W 090°55'1 1.6
2017-May-17 15:00N 32°17' W 090°56'4 4.1
2017-May-17 14:00N 32°14' W 090°59'2 4.4
2017-May-17 13:30N 32°12' W 090°59'2 4.0
2017-May-17 13:00N 32°10' W 090°60'2 3.8
2017-May-17 12:30N 32°08' W 091°00'2 4.2
2017-May-17 12:00N 32°07' W 091°02'3 4.1
2017-May-17 11:09N 32°08' W 091°06'1 4.8
2017-May-17 11:00N 32°07' W 091°07'5 4.6
2017-May-17 09:58N 32°03' W 091°03'6 4.1
2017-May-17 08:37N 31°59' W 091°08'1 4.1
2017-May-17 08:19N 31°59' W 091°09'13 4.2
2017-May-17 05:06N 31°50' W 091°21'  
2017-May-13 10:08N 29°56' W 093°06'0 3.3
2017-May-13 10:00N 29°56' W 093°07'2 4.8
2017-May-13 09:30N 29°56' W 093°09'2 4.8
2017-May-13 09:00N 29°58' W 093°11'2 4.7
2017-May-13 08:30N 29°60' W 093°13'2 3.8
2017-May-13 08:00N 30°01' W 093°14'2 3.9
2017-May-13 07:30N 30°03' W 093°16'1 1.3
2017-May-13 07:00N 30°03' W 093°16'1 2.3
2017-May-13 06:30N 30°04' W 093°16'1 2.9
2017-May-13 06:00N 30°05' W 093°18'1 2.6
2017-May-13 05:30N 30°06' W 093°19'0 0.9
2017-May-13 05:00N 30°06' W 093°19'0 0.2
2017-May-13 04:30N 30°06' W 093°19'0 0.3
2017-May-13 04:00N 30°06' W 093°19'0 0.3
2017-May-13 03:30N 30°06' W 093°19'0 0.1
2017-May-13 03:00N 30°06' W 093°19'1 1.5
2017-May-13 02:30N 30°06' W 093°19'1 2.8
2017-May-13 02:00N 30°07' W 093°20'2 4.9
2017-May-13 01:30N 30°09' W 093°20'2 4.7
2017-May-13 01:00N 30°11' W 093°18'3 5.0
2017-May-13 00:30N 30°13' W 093°16'1 2.6
2017-May-13 00:00N 30°14' W 093°15'0 0.1
2017-May-12 23:30N 30°14' W 093°15'0 0.0
2017-May-12 23:00N 30°14' W 093°15'0 0.0
2017-May-12 22:30N 30°14' W 093°15'0 0.0
2017-May-12 22:00N 30°14' W 093°15'0 0.0
2017-May-12 21:30N 30°14' W 093°15'0 0.0
2017-May-12 21:00N 30°14' W 093°15'0 0.0
2017-May-12 20:30N 30°14' W 093°15'0 0.0
2017-May-12 20:00N 30°14' W 093°15'0 0.0
2017-May-12 19:30N 30°14' W 093°15'0 0.0
2017-May-12 19:00N 30°14' W 093°15'0 0.0
2017-May-12 18:30N 30°14' W 093°15'0 0.0
2017-May-12 18:00N 30°14' W 093°15'0 0.0
2017-May-12 17:30N 30°14' W 093°15'0 0.0
2017-May-12 17:00N 30°14' W 093°15'0 0.0
2017-May-12 16:30N 30°14' W 093°15'0 0.0
2017-May-12 16:00N 30°14' W 093°15'0 0.0
2017-May-12 15:30N 30°14' W 093°15'0 0.0
2017-May-12 15:00N 30°14' W 093°15'0 0.0
2017-May-12 14:00N 30°14' W 093°15'0 0.0
2017-May-12 13:30N 30°14' W 093°15'0 0.0
2017-May-12 13:00N 30°14' W 093°15'0 0.0
2017-May-12 12:30N 30°14' W 093°15'0 0.0
2017-May-12 11:58N 30°14' W 093°15'0 0.0
2017-May-12 11:30N 30°14' W 093°15'0 0.0
2017-May-12 11:00N 30°14' W 093°15'0 0.0
2017-May-12 10:30N 30°14' W 093°15'0 0.0
2017-May-12 10:00N 30°14' W 093°15'0 0.0
2017-May-12 09:30N 30°14' W 093°15'0 0.0
2017-May-12 09:00N 30°14' W 093°15'0 0.0
2017-May-12 08:30N 30°14' W 093°15'0 0.0
2017-May-12 08:00N 30°14' W 093°15'0 0.0
2017-May-12 07:30N 30°14' W 093°15'0 0.0
2017-May-12 07:00N 30°14' W 093°15'0 0.0
2017-May-12 06:30N 30°14' W 093°15'0 0.0
2017-May-12 06:00N 30°14' W 093°15'0 0.0
2017-May-12 05:30N 30°14' W 093°15'0 0.0
2017-May-12 05:00N 30°14' W 093°15'0 0.0
2017-May-12 04:30N 30°14' W 093°15'0 0.0
2017-May-12 04:00N 30°14' W 093°15'0 0.0
2017-May-12 03:30N 30°14' W 093°15'0 0.1
2017-May-12 03:00N 30°14' W 093°15'0 0.0
2017-May-12 02:29N 30°14' W 093°15'0 0.1
2017-May-12 02:00N 30°14' W 093°15'0 0.0
2017-May-12 01:30N 30°14' W 093°15'0 0.0
2017-May-12 01:00N 30°14' W 093°15'0 0.0
2017-May-12 00:30N 30°14' W 093°15'0 0.0
2017-May-12 00:00N 30°14' W 093°15'0 0.0
2017-May-11 23:30N 30°14' W 093°15'0 0.0
2017-May-11 23:00N 30°14' W 093°15'0 0.0
2017-May-11 22:30N 30°14' W 093°15'0 0.0
2017-May-11 22:00N 30°14' W 093°15'0 0.0
2017-May-11 21:30N 30°14' W 093°15'0 0.0
2017-May-11 21:00N 30°14' W 093°15'0 0.0
2017-May-11 20:30N 30°14' W 093°15'0 0.0
2017-May-11 20:00N 30°14' W 093°15'0 0.0
2017-May-11 19:30N 30°14' W 093°15'0 0.0
2017-May-11 19:00N 30°14' W 093°15'0 0.0
2017-May-11 18:30N 30°14' W 093°15'0 0.0
2017-May-11 18:00N 30°14' W 093°15'0 0.0
2017-May-11 17:30N 30°14' W 093°15'0 0.0
2017-May-11 17:00N 30°14' W 093°15'0 0.0
2017-May-11 16:30N 30°14' W 093°15'0 0.0
2017-May-11 16:00N 30°14' W 093°15'0 0.0
2017-May-11 15:30N 30°14' W 093°15'0 0.0
2017-May-11 15:00N 30°14' W 093°15'0 0.0
2017-May-11 14:00N 30°14' W 093°15'0 0.0
2017-May-11 13:23N 30°14' W 093°15'0 0.0
2017-May-11 13:00N 30°14' W 093°15'0 0.0
2017-May-11 12:30N 30°14' W 093°15'0 0.0
2017-May-11 12:00N 30°14' W 093°15'0 0.0
2017-May-11 11:30N 30°14' W 093°15'0 0.0
2017-May-11 11:00N 30°14' W 093°15'0 0.0
2017-May-11 10:30N 30°14' W 093°15'0 0.0
2017-May-11 10:00N 30°14' W 093°15'0 0.0
2017-May-11 09:30N 30°14' W 093°15'0 0.0
2017-May-11 09:00N 30°14' W 093°15'0 0.0
2017-May-11 08:30N 30°14' W 093°15'0 0.0
2017-May-11 08:00N 30°14' W 093°15'0 0.0
2017-May-11 07:30N 30°14' W 093°15'0 0.0
2017-May-11 07:00N 30°14' W 093°15'0 0.0
2017-May-11 06:30N 30°14' W 093°15'0 0.0
2017-May-11 06:00N 30°14' W 093°15'0 0.0
2017-May-11 05:30N 30°14' W 093°15'0 0.0
2017-May-11 05:00N 30°14' W 093°15'0 0.0
2017-May-11 04:30N 30°14' W 093°15'0 0.0
2017-May-11 04:00N 30°14' W 093°15'0 0.0
2017-May-11 03:30N 30°14' W 093°15'0 0.0
2017-May-11 03:00N 30°14' W 093°15'0 0.0
2017-May-11 02:30N 30°14' W 093°15'0 0.0
2017-May-11 02:00N 30°14' W 093°15'0 0.0
2017-May-11 01:30N 30°14' W 093°15'0 0.0
2017-May-11 01:00N 30°14' W 093°15'0 0.0
2017-May-11 00:30N 30°14' W 093°15'0 0.0
2017-May-11 00:00N 30°14' W 093°15'0 0.0
2017-May-10 23:30N 30°14' W 093°15'0 0.0
2017-May-10 23:00N 30°14' W 093°15'0 0.0
2017-May-10 22:30N 30°14' W 093°15'0 0.0
2017-May-10 22:00N 30°14' W 093°15'0 0.0
2017-May-10 21:30N 30°14' W 093°15'0 0.0
2017-May-10 21:00N 30°14' W 093°15'0 0.0
2017-May-10 20:30N 30°14' W 093°15'0 0.0
2017-May-10 20:00N 30°14' W 093°15'0 0.0
2017-May-10 19:30N 30°14' W 093°15'0 0.0
2017-May-10 19:00N 30°14' W 093°15'0 0.0
2017-May-10 18:30N 30°14' W 093°15'0 0.0
2017-May-10 18:00N 30°14' W 093°15'0 0.0
2017-May-10 17:30N 30°14' W 093°15'0 0.0
2017-May-10 17:00N 30°14' W 093°15'1 1.0
2017-May-10 16:30N 30°14' W 093°16'1 2.4
2017-May-10 16:00N 30°12' W 093°16'0 0.4
2017-May-10 15:30N 30°12' W 093°16'0 0.0
2017-May-10 15:00N 30°12' W 093°16'6 6.5
2017-May-10 14:00N 30°07' W 093°20'1 2.7
2017-May-10 13:30N 30°06' W 093°19'1 2.4
2017-May-10 13:00N 30°05' W 093°18'3 5.1
2017-May-10 12:30N 30°04' W 093°16'2 4.7
2017-May-10 12:00N 30°02' W 093°14'2 4.7
2017-May-10 11:30N 29°60' W 093°13'2 3.0
2017-May-10 11:00N 29°58' W 093°12'2 5.0
2017-May-10 10:30N 29°57' W 093°10'3 5.1
2017-May-10 10:00N 29°56' W 093°07'  
Track history (hours):
 
Tides and Currents Weather Stations Pressure Air Temp Water Temp Dewpoint Dewpoint Depression Visibility Wind Speed Wind Dir Waves Ship Positions

Magnolia

Owner: Magnolia Marine Transport Co, Vicksburg, MS. More information available from US FCC via Universal Licensing System and Coast Guard Vessel Documentation Center.

Last reported at 2017-May-18 03:16 UTC. Time now 2017-Jun-27 05:30 UTC.
Position N 32°37' W 091°09'.
Warning: this ship's position is 40 days out of date.

Length 215 m.

MMSI: 366936960.

Date/timePositionNaut miles runAvg speedWind from/ knotsBaromVisibWave heightAir tempDewpointWater temp
2017-May-18 03:16N 32°37' W 091°09'2 5.3
2017-May-18 02:49N 32°35' W 091°07'1 4.6
2017-May-18 02:30N 32°34' W 091°06'4 4.4
2017-May-18 01:38N 32°30' W 091°07'1 5.9
2017-May-18 01:29N 32°29' W 091°07'2 3.2
2017-May-18 01:00N 32°28' W 091°06'2 4.2
2017-May-18 00:30N 32°27' W 091°04'3 5.1
2017-May-18 00:00N 32°26' W 091°01'2 4.5
2017-May-17 23:30N 32°24' W 090°60'2 3.9
2017-May-17 23:00N 32°22' W 090°60'3 5.8
2017-May-17 22:30N 32°21' W 090°56'3 5.0
2017-May-17 22:00N 32°20' W 090°54'2 4.1
2017-May-17 21:30N 32°18' W 090°55'0 0.9
2017-May-17 21:00N 32°18' W 090°55'0 0.1
2017-May-17 20:30N 32°18' W 090°55'0 0.0
2017-May-17 20:00N 32°18' W 090°55'0 0.0
2017-May-17 19:30N 32°18' W 090°55'0 0.0
2017-May-17 19:00N 32°18' W 090°55'0 0.0
2017-May-17 18:30N 32°18' W 090°55'0 0.0
2017-May-17 18:00N 32°18' W 090°55'0 0.0
2017-May-17 17:30N 32°18' W 090°55'0 0.0
2017-May-17 17:00N 32°18' W 090°55'0 0.0
2017-May-17 16:30N 32°18' W 090°55'0 0.0
2017-May-17 16:00N 32°18' W 090°55'0 0.1
2017-May-17 15:30N 32°18' W 090°55'1 1.6
2017-May-17 15:00N 32°17' W 090°56'4 4.1
2017-May-17 14:00N 32°14' W 090°59'2 4.4
2017-May-17 13:30N 32°12' W 090°59'2 4.0
2017-May-17 13:00N 32°10' W 090°60'2 3.8
2017-May-17 12:30N 32°08' W 091°00'2 4.2
2017-May-17 12:00N 32°07' W 091°02'3 4.1
2017-May-17 11:09N 32°08' W 091°06'1 4.8
2017-May-17 11:00N 32°07' W 091°07'5 4.6
2017-May-17 09:58N 32°03' W 091°03'6 4.1
2017-May-17 08:37N 31°59' W 091°08'1 4.1
2017-May-17 08:19N 31°59' W 091°09'13 4.2
2017-May-17 05:06N 31°50' W 091°21'  
2017-May-13 10:08N 29°56' W 093°06'0 3.3
2017-May-13 10:00N 29°56' W 093°07'2 4.8
2017-May-13 09:30N 29°56' W 093°09'2 4.8
2017-May-13 09:00N 29°58' W 093°11'2 4.7
2017-May-13 08:30N 29°60' W 093°13'2 3.8
2017-May-13 08:00N 30°01' W 093°14'2 3.9
2017-May-13 07:30N 30°03' W 093°16'1 1.3
2017-May-13 07:00N 30°03' W 093°16'1 2.3
2017-May-13 06:30N 30°04' W 093°16'1 2.9
2017-May-13 06:00N 30°05' W 093°18'1 2.6
2017-May-13 05:30N 30°06' W 093°19'0 0.9
2017-May-13 05:00N 30°06' W 093°19'0 0.2
2017-May-13 04:30N 30°06' W 093°19'0 0.3
2017-May-13 04:00N 30°06' W 093°19'0 0.3
2017-May-13 03:30N 30°06' W 093°19'0 0.1
2017-May-13 03:00N 30°06' W 093°19'1 1.5
2017-May-13 02:30N 30°06' W 093°19'1 2.8
2017-May-13 02:00N 30°07' W 093°20'2 4.9
2017-May-13 01:30N 30°09' W 093°20'2 4.7
2017-May-13 01:00N 30°11' W 093°18'3 5.0
2017-May-13 00:30N 30°13' W 093°16'1 2.6
2017-May-13 00:00N 30°14' W 093°15'0 0.1
2017-May-12 23:30N 30°14' W 093°15'0 0.0
2017-May-12 23:00N 30°14' W 093°15'0 0.0
2017-May-12 22:30N 30°14' W 093°15'0 0.0
2017-May-12 22:00N 30°14' W 093°15'0 0.0
2017-May-12 21:30N 30°14' W 093°15'0 0.0
2017-May-12 21:00N 30°14' W 093°15'0 0.0
2017-May-12 20:30N 30°14' W 093°15'0 0.0
2017-May-12 20:00N 30°14' W 093°15'0 0.0
2017-May-12 19:30N 30°14' W 093°15'0 0.0
2017-May-12 19:00N 30°14' W 093°15'0 0.0
2017-May-12 18:30N 30°14' W 093°15'0 0.0
2017-May-12 18:00N 30°14' W 093°15'0 0.0
2017-May-12 17:30N 30°14' W 093°15'0 0.0
2017-May-12 17:00N 30°14' W 093°15'0 0.0
2017-May-12 16:30N 30°14' W 093°15'0 0.0
2017-May-12 16:00N 30°14' W 093°15'0 0.0
2017-May-12 15:30N 30°14' W 093°15'0 0.0
2017-May-12 15:00N 30°14' W 093°15'0 0.0
2017-May-12 14:00N 30°14' W 093°15'0 0.0
2017-May-12 13:30N 30°14' W 093°15'0 0.0
2017-May-12 13:00N 30°14' W 093°15'0 0.0
2017-May-12 12:30N 30°14' W 093°15'0 0.0
2017-May-12 11:58N 30°14' W 093°15'0 0.0
2017-May-12 11:30N 30°14' W 093°15'0 0.0
2017-May-12 11:00N 30°14' W 093°15'0 0.0
2017-May-12 10:30N 30°14' W 093°15'0 0.0
2017-May-12 10:00N 30°14' W 093°15'0 0.0
2017-May-12 09:30N 30°14' W 093°15'0 0.0
2017-May-12 09:00N 30°14' W 093°15'0 0.0
2017-May-12 08:30N 30°14' W 093°15'0 0.0
2017-May-12 08:00N 30°14' W 093°15'0 0.0
2017-May-12 07:30N 30°14' W 093°15'0 0.0
2017-May-12 07:00N 30°14' W 093°15'0 0.0
2017-May-12 06:30N 30°14' W 093°15'0 0.0
2017-May-12 06:00N 30°14' W 093°15'0 0.0
2017-May-12 05:30N 30°14' W 093°15'0 0.0
2017-May-12 05:00N 30°14' W 093°15'0 0.0
2017-May-12 04:30N 30°14' W 093°15'0 0.0
2017-May-12 04:00N 30°14' W 093°15'0 0.0
2017-May-12 03:30N 30°14' W 093°15'0 0.1
2017-May-12 03:00N 30°14' W 093°15'0 0.0
2017-May-12 02:29N 30°14' W 093°15'0 0.1
2017-May-12 02:00N 30°14' W 093°15'0 0.0
2017-May-12 01:30N 30°14' W 093°15'0 0.0
2017-May-12 01:00N 30°14' W 093°15'0 0.0
2017-May-12 00:30N 30°14' W 093°15'0 0.0
2017-May-12 00:00N 30°14' W 093°15'0 0.0
2017-May-11 23:30N 30°14' W 093°15'0 0.0
2017-May-11 23:00N 30°14' W 093°15'0 0.0
2017-May-11 22:30N 30°14' W 093°15'0 0.0
2017-May-11 22:00N 30°14' W 093°15'0 0.0
2017-May-11 21:30N 30°14' W 093°15'0 0.0
2017-May-11 21:00N 30°14' W 093°15'0 0.0
2017-May-11 20:30N 30°14' W 093°15'0 0.0
2017-May-11 20:00N 30°14' W 093°15'0 0.0
2017-May-11 19:30N 30°14' W 093°15'0 0.0
2017-May-11 19:00N 30°14' W 093°15'0 0.0
2017-May-11 18:30N 30°14' W 093°15'0 0.0
2017-May-11 18:00N 30°14' W 093°15'0 0.0
2017-May-11 17:30N 30°14' W 093°15'0 0.0
2017-May-11 17:00N 30°14' W 093°15'0 0.0
2017-May-11 16:30N 30°14' W 093°15'0 0.0
2017-May-11 16:00N 30°14' W 093°15'0 0.0
2017-May-11 15:30N 30°14' W 093°15'0 0.0
2017-May-11 15:00N 30°14' W 093°15'0 0.0
2017-May-11 14:00N 30°14' W 093°15'0 0.0
2017-May-11 13:23N 30°14' W 093°15'0 0.0
2017-May-11 13:00N 30°14' W 093°15'0 0.0
2017-May-11 12:30N 30°14' W 093°15'0 0.0
2017-May-11 12:00N 30°14' W 093°15'0 0.0
2017-May-11 11:30N 30°14' W 093°15'0 0.0
2017-May-11 11:00N 30°14' W 093°15'0 0.0
2017-May-11 10:30N 30°14' W 093°15'0 0.0
2017-May-11 10:00N 30°14' W 093°15'0 0.0
2017-May-11 09:30N 30°14' W 093°15'0 0.0
2017-May-11 09:00N 30°14' W 093°15'0 0.0
2017-May-11 08:30N 30°14' W 093°15'0 0.0
2017-May-11 08:00N 30°14' W 093°15'0 0.0
2017-May-11 07:30N 30°14' W 093°15'0 0.0
2017-May-11 07:00N 30°14' W 093°15'0 0.0
2017-May-11 06:30N 30°14' W 093°15'0 0.0
2017-May-11 06:00N 30°14' W 093°15'0 0.0
2017-May-11 05:30N 30°14' W 093°15'0 0.0
2017-May-11 05:00N 30°14' W 093°15'0 0.0
2017-May-11 04:30N 30°14' W 093°15'0 0.0
2017-May-11 04:00N 30°14' W 093°15'0 0.0
2017-May-11 03:30N 30°14' W 093°15'0 0.0
2017-May-11 03:00N 30°14' W 093°15'0 0.0
2017-May-11 02:30N 30°14' W 093°15'0 0.0
2017-May-11 02:00N 30°14' W 093°15'0 0.0
2017-May-11 01:30N 30°14' W 093°15'0 0.0
2017-May-11 01:00N 30°14' W 093°15'0 0.0
2017-May-11 00:30N 30°14' W 093°15'0 0.0
2017-May-11 00:00N 30°14' W 093°15'0 0.0
2017-May-10 23:30N 30°14' W 093°15'0 0.0
2017-May-10 23:00N 30°14' W 093°15'0 0.0
2017-May-10 22:30N 30°14' W 093°15'0 0.0
2017-May-10 22:00N 30°14' W 093°15'0 0.0
2017-May-10 21:30N 30°14' W 093°15'0 0.0
2017-May-10 21:00N 30°14' W 093°15'0 0.0
2017-May-10 20:30N 30°14' W 093°15'0 0.0
2017-May-10 20:00N 30°14' W 093°15'0 0.0
2017-May-10 19:30N 30°14' W 093°15'0 0.0
2017-May-10 19:00N 30°14' W 093°15'0 0.0
2017-May-10 18:30N 30°14' W 093°15'0 0.0
2017-May-10 18:00N 30°14' W 093°15'0 0.0
2017-May-10 17:30N 30°14' W 093°15'0 0.0
2017-May-10 17:00N 30°14' W 093°15'1 1.0
2017-May-10 16:30N 30°14' W 093°16'1 2.4
2017-May-10 16:00N 30°12' W 093°16'0 0.4
2017-May-10 15:30N 30°12' W 093°16'0 0.0
2017-May-10 15:00N 30°12' W 093°16'6 6.5
2017-May-10 14:00N 30°07' W 093°20'1 2.7
2017-May-10 13:30N 30°06' W 093°19'1 2.4
2017-May-10 13:00N 30°05' W 093°18'3 5.1
2017-May-10 12:30N 30°04' W 093°16'2 4.7
2017-May-10 12:00N 30°02' W 093°14'2 4.7
2017-May-10 11:30N 29°60' W 093°13'2 3.0
2017-May-10 11:00N 29°58' W 093°12'2 5.0
2017-May-10 10:30N 29°57' W 093°10'3 5.1
2017-May-10 10:00N 29°56' W 093°07'  

Dump ship's entire track history